sensor_id;sensor_type;location;lat;lon;timestamp;P1;durP1;ratioP1;P2;durP2;ratioP2
8337;SDS011;4206;48.634;9.516;2023-05-23T00:00:13;26.90;;;16.93;;
8337;SDS011;4206;48.634;9.516;2023-05-23T00:02:40;25.77;;;16.70;;
8337;SDS011;4206;48.634;9.516;2023-05-23T00:05:08;28.27;;;17.17;;
8337;SDS011;4206;48.634;9.516;2023-05-23T00:07:35;28.93;;;17.97;;
8337;SDS011;4206;48.634;9.516;2023-05-23T00:10:02;31.23;;;17.90;;
8337;SDS011;4206;48.634;9.516;2023-05-23T00:12:29;29.40;;;17.70;;
8337;SDS011;4206;48.634;9.516;2023-05-23T00:14:56;34.27;;;19.63;;
8337;SDS011;4206;48.634;9.516;2023-05-23T00:17:23;33.43;;;19.70;;
8337;SDS011;4206;48.634;9.516;2023-05-23T00:19:51;35.60;;;19.20;;
8337;SDS011;4206;48.634;9.516;2023-05-23T00:22:18;27.17;;;17.83;;
8337;SDS011;4206;48.634;9.516;2023-05-23T00:24:45;31.97;;;18.93;;
8337;SDS011;4206;48.634;9.516;2023-05-23T00:27:12;28.67;;;18.63;;
8337;SDS011;4206;48.634;9.516;2023-05-23T00:29:38;32.83;;;18.47;;
8337;SDS011;4206;48.634;9.516;2023-05-23T00:32:05;31.60;;;17.83;;
8337;SDS011;4206;48.634;9.516;2023-05-23T00:34:32;32.03;;;18.37;;
8337;SDS011;4206;48.634;9.516;2023-05-23T00:36:59;33.40;;;19.43;;
8337;SDS011;4206;48.634;9.516;2023-05-23T00:39:27;28.60;;;18.07;;
8337;SDS011;4206;48.634;9.516;2023-05-23T00:41:54;26.73;;;18.07;;
8337;SDS011;4206;48.634;9.516;2023-05-23T00:44:22;27.20;;;17.23;;
8337;SDS011;4206;48.634;9.516;2023-05-23T00:46:51;30.93;;;18.07;;
8337;SDS011;4206;48.634;9.516;2023-05-23T00:49:20;23.20;;;16.87;;
8337;SDS011;4206;48.634;9.516;2023-05-23T00:51:47;25.03;;;17.30;;
8337;SDS011;4206;48.634;9.516;2023-05-23T00:54:17;27.80;;;17.47;;
8337;SDS011;4206;48.634;9.516;2023-05-23T00:56:47;29.37;;;18.37;;
8337;SDS011;4206;48.634;9.516;2023-05-23T00:59:14;28.90;;;17.23;;
8337;SDS011;4206;48.634;9.516;2023-05-23T01:01:42;22.67;;;16.90;;
8337;SDS011;4206;48.634;9.516;2023-05-23T01:04:12;32.00;;;19.30;;
8337;SDS011;4206;48.634;9.516;2023-05-23T01:06:42;31.17;;;17.30;;
8337;SDS011;4206;48.634;9.516;2023-05-23T01:09:12;26.37;;;17.50;;
8337;SDS011;4206;48.634;9.516;2023-05-23T01:11:42;30.73;;;17.70;;
8337;SDS011;4206;48.634;9.516;2023-05-23T01:14:21;29.50;;;17.37;;
8337;SDS011;4206;48.634;9.516;2023-05-23T01:16:57;26.47;;;16.83;;
8337;SDS011;4206;48.634;9.516;2023-05-23T01:22:10;28.43;;;18.70;;
8337;SDS011;4206;48.634;9.516;2023-05-23T01:24:53;29.30;;;19.17;;
8337;SDS011;4206;48.634;9.516;2023-05-23T01:30:06;29.80;;;20.10;;
8337;SDS011;4206;48.634;9.516;2023-05-23T01:32:35;35.97;;;21.80;;
8337;SDS011;4206;48.634;9.516;2023-05-23T01:35:04;32.97;;;21.03;;
8337;SDS011;4206;48.634;9.516;2023-05-23T01:37:31;31.37;;;20.17;;
8337;SDS011;4206;48.634;9.516;2023-05-23T01:39:58;36.20;;;22.37;;
8337;SDS011;4206;48.634;9.516;2023-05-23T01:42:25;41.43;;;23.30;;
8337;SDS011;4206;48.634;9.516;2023-05-23T01:44:53;48.10;;;26.10;;
8337;SDS011;4206;48.634;9.516;2023-05-23T01:47:20;49.90;;;27.57;;
8337;SDS011;4206;48.634;9.516;2023-05-23T01:49:47;48.80;;;27.63;;
8337;SDS011;4206;48.634;9.516;2023-05-23T01:52:14;60.57;;;31.27;;
8337;SDS011;4206;48.634;9.516;2023-05-23T01:54:42;58.23;;;30.00;;
8337;SDS011;4206;48.634;9.516;2023-05-23T01:57:10;53.73;;;28.70;;
8337;SDS011;4206;48.634;9.516;2023-05-23T01:59:38;49.40;;;28.50;;
8337;SDS011;4206;48.634;9.516;2023-05-23T02:02:04;61.87;;;29.27;;
8337;SDS011;4206;48.634;9.516;2023-05-23T02:04:31;55.83;;;30.17;;
8337;SDS011;4206;48.634;9.516;2023-05-23T02:06:59;52.97;;;30.27;;
8337;SDS011;4206;48.634;9.516;2023-05-23T02:09:26;59.03;;;28.23;;
8337;SDS011;4206;48.634;9.516;2023-05-23T02:11:52;54.70;;;28.73;;
8337;SDS011;4206;48.634;9.516;2023-05-23T02:14:20;52.77;;;27.07;;
8337;SDS011;4206;48.634;9.516;2023-05-23T02:16:46;38.27;;;25.90;;
8337;SDS011;4206;48.634;9.516;2023-05-23T02:19:13;47.33;;;27.13;;
8337;SDS011;4206;48.634;9.516;2023-05-23T02:21:41;41.20;;;25.70;;
8337;SDS011;4206;48.634;9.516;2023-05-23T02:24:08;45.77;;;25.37;;
8337;SDS011;4206;48.634;9.516;2023-05-23T02:26:36;42.53;;;26.97;;
8337;SDS011;4206;48.634;9.516;2023-05-23T02:29:03;49.83;;;26.80;;
8337;SDS011;4206;48.634;9.516;2023-05-23T02:31:30;43.20;;;25.63;;
8337;SDS011;4206;48.634;9.516;2023-05-23T02:33:57;45.57;;;24.80;;
8337;SDS011;4206;48.634;9.516;2023-05-23T02:36:24;45.57;;;25.20;;
8337;SDS011;4206;48.634;9.516;2023-05-23T02:38:51;41.40;;;25.30;;
8337;SDS011;4206;48.634;9.516;2023-05-23T02:41:18;39.70;;;23.37;;
8337;SDS011;4206;48.634;9.516;2023-05-23T02:43:46;38.50;;;23.77;;
8337;SDS011;4206;48.634;9.516;2023-05-23T02:46:13;43.90;;;25.87;;
8337;SDS011;4206;48.634;9.516;2023-05-23T02:48:40;46.37;;;27.00;;
8337;SDS011;4206;48.634;9.516;2023-05-23T02:51:07;47.00;;;26.40;;
8337;SDS011;4206;48.634;9.516;2023-05-23T02:53:34;63.87;;;29.83;;
8337;SDS011;4206;48.634;9.516;2023-05-23T02:56:01;51.50;;;27.30;;
8337;SDS011;4206;48.634;9.516;2023-05-23T02:58:28;48.57;;;28.00;;
8337;SDS011;4206;48.634;9.516;2023-05-23T03:00:55;73.60;;;41.90;;
8337;SDS011;4206;48.634;9.516;2023-05-23T03:03:22;119.93;;;65.57;;
8337;SDS011;4206;48.634;9.516;2023-05-23T03:05:49;59.43;;;31.70;;
8337;SDS011;4206;48.634;9.516;2023-05-23T03:08:16;47.57;;;26.83;;
8337;SDS011;4206;48.634;9.516;2023-05-23T03:10:43;56.23;;;28.33;;
8337;SDS011;4206;48.634;9.516;2023-05-23T03:13:10;53.23;;;30.70;;
8337;SDS011;4206;48.634;9.516;2023-05-23T03:15:37;68.33;;;34.10;;
8337;SDS011;4206;48.634;9.516;2023-05-23T03:18:04;65.77;;;34.67;;
8337;SDS011;4206;48.634;9.516;2023-05-23T03:20:31;70.33;;;35.07;;
8337;SDS011;4206;48.634;9.516;2023-05-23T03:22:58;66.03;;;33.57;;
8337;SDS011;4206;48.634;9.516;2023-05-23T03:25:25;52.13;;;31.73;;
8337;SDS011;4206;48.634;9.516;2023-05-23T03:27:51;61.67;;;34.00;;
8337;SDS011;4206;48.634;9.516;2023-05-23T03:30:19;63.33;;;34.63;;
8337;SDS011;4206;48.634;9.516;2023-05-23T03:32:46;63.60;;;38.43;;
8337;SDS011;4206;48.634;9.516;2023-05-23T03:35:13;112.73;;;65.40;;
8337;SDS011;4206;48.634;9.516;2023-05-23T03:37:40;86.63;;;50.70;;
8337;SDS011;4206;48.634;9.516;2023-05-23T03:40:07;52.30;;;30.67;;
8337;SDS011;4206;48.634;9.516;2023-05-23T03:42:35;86.57;;;47.40;;
8337;SDS011;4206;48.634;9.516;2023-05-23T03:45:04;79.20;;;36.00;;
8337;SDS011;4206;48.634;9.516;2023-05-23T03:47:31;70.33;;;35.90;;
8337;SDS011;4206;48.634;9.516;2023-05-23T03:49:58;66.90;;;34.67;;
8337;SDS011;4206;48.634;9.516;2023-05-23T03:52:25;69.07;;;35.80;;
8337;SDS011;4206;48.634;9.516;2023-05-23T03:54:52;60.63;;;33.57;;
8337;SDS011;4206;48.634;9.516;2023-05-23T03:57:18;70.13;;;34.63;;
8337;SDS011;4206;48.634;9.516;2023-05-23T03:59:46;59.57;;;32.47;;
8337;SDS011;4206;48.634;9.516;2023-05-23T04:02:13;75.70;;;36.87;;
8337;SDS011;4206;48.634;9.516;2023-05-23T04:04:39;76.67;;;37.10;;
8337;SDS011;4206;48.634;9.516;2023-05-23T04:07:07;83.33;;;40.97;;
8337;SDS011;4206;48.634;9.516;2023-05-23T04:09:35;98.23;;;41.47;;
8337;SDS011;4206;48.634;9.516;2023-05-23T04:12:02;86.73;;;39.47;;
8337;SDS011;4206;48.634;9.516;2023-05-23T04:14:29;94.80;;;43.10;;
8337;SDS011;4206;48.634;9.516;2023-05-23T04:16:58;102.30;;;45.90;;
8337;SDS011;4206;48.634;9.516;2023-05-23T04:19:26;129.30;;;48.47;;
8337;SDS011;4206;48.634;9.516;2023-05-23T04:21:53;111.50;;;47.43;;
8337;SDS011;4206;48.634;9.516;2023-05-23T04:24:20;121.07;;;47.00;;
8337;SDS011;4206;48.634;9.516;2023-05-23T04:26:46;116.63;;;49.93;;
8337;SDS011;4206;48.634;9.516;2023-05-23T04:29:14;110.20;;;49.47;;
8337;SDS011;4206;48.634;9.516;2023-05-23T04:31:41;120.17;;;52.47;;
8337;SDS011;4206;48.634;9.516;2023-05-23T04:34:11;117.67;;;52.87;;
8337;SDS011;4206;48.634;9.516;2023-05-23T04:36:38;109.70;;;51.67;;
8337;SDS011;4206;48.634;9.516;2023-05-23T04:39:05;141.50;;;55.43;;
8337;SDS011;4206;48.634;9.516;2023-05-23T04:41:32;129.80;;;53.70;;
8337;SDS011;4206;48.634;9.516;2023-05-23T04:43:59;124.00;;;51.70;;
8337;SDS011;4206;48.634;9.516;2023-05-23T04:46:26;122.17;;;56.17;;
8337;SDS011;4206;48.634;9.516;2023-05-23T04:48:53;137.10;;;52.90;;
8337;SDS011;4206;48.634;9.516;2023-05-23T04:51:20;112.17;;;54.50;;
8337;SDS011;4206;48.634;9.516;2023-05-23T04:53:49;129.80;;;53.83;;
8337;SDS011;4206;48.634;9.516;2023-05-23T04:56:17;150.20;;;58.57;;
8337;SDS011;4206;48.634;9.516;2023-05-23T04:58:47;133.30;;;57.57;;
8337;SDS011;4206;48.634;9.516;2023-05-23T05:01:14;128.03;;;55.50;;
8337;SDS011;4206;48.634;9.516;2023-05-23T05:03:41;136.70;;;57.47;;
8337;SDS011;4206;48.634;9.516;2023-05-23T05:06:08;139.40;;;56.73;;
8337;SDS011;4206;48.634;9.516;2023-05-23T05:08:35;114.03;;;53.70;;
8337;SDS011;4206;48.634;9.516;2023-05-23T05:11:02;129.50;;;54.57;;
8337;SDS011;4206;48.634;9.516;2023-05-23T05:13:29;117.87;;;51.40;;
8337;SDS011;4206;48.634;9.516;2023-05-23T05:15:55;123.33;;;53.67;;
8337;SDS011;4206;48.634;9.516;2023-05-23T05:18:25;112.17;;;53.03;;
8337;SDS011;4206;48.634;9.516;2023-05-23T05:20:52;119.17;;;53.47;;
8337;SDS011;4206;48.634;9.516;2023-05-23T05:23:19;117.23;;;51.57;;
8337;SDS011;4206;48.634;9.516;2023-05-23T05:25:49;121.70;;;53.80;;
8337;SDS011;4206;48.634;9.516;2023-05-23T05:28:15;116.07;;;55.17;;
8337;SDS011;4206;48.634;9.516;2023-05-23T05:30:42;111.77;;;53.50;;
8337;SDS011;4206;48.634;9.516;2023-05-23T05:33:11;123.70;;;57.47;;
8337;SDS011;4206;48.634;9.516;2023-05-23T05:35:38;112.90;;;53.93;;
8337;SDS011;4206;48.634;9.516;2023-05-23T05:38:05;114.20;;;55.00;;
8337;SDS011;4206;48.634;9.516;2023-05-23T05:40:33;115.40;;;53.80;;
8337;SDS011;4206;48.634;9.516;2023-05-23T05:43:00;108.87;;;53.90;;
8337;SDS011;4206;48.634;9.516;2023-05-23T05:45:27;113.10;;;55.60;;
8337;SDS011;4206;48.634;9.516;2023-05-23T05:47:54;131.17;;;57.30;;
8337;SDS011;4206;48.634;9.516;2023-05-23T05:50:20;126.13;;;57.00;;
8337;SDS011;4206;48.634;9.516;2023-05-23T05:52:47;120.80;;;55.67;;
8337;SDS011;4206;48.634;9.516;2023-05-23T05:55:14;119.93;;;55.13;;
8337;SDS011;4206;48.634;9.516;2023-05-23T05:57:41;114.07;;;55.00;;
8337;SDS011;4206;48.634;9.516;2023-05-23T06:00:09;103.80;;;54.23;;
8337;SDS011;4206;48.634;9.516;2023-05-23T06:02:38;118.17;;;53.97;;
8337;SDS011;4206;48.634;9.516;2023-05-23T06:05:07;113.97;;;54.83;;
8337;SDS011;4206;48.634;9.516;2023-05-23T06:07:37;101.77;;;51.67;;
8337;SDS011;4206;48.634;9.516;2023-05-23T06:10:05;108.10;;;53.40;;
8337;SDS011;4206;48.634;9.516;2023-05-23T06:12:33;111.97;;;53.97;;
8337;SDS011;4206;48.634;9.516;2023-05-23T06:15:00;104.43;;;55.50;;
8337;SDS011;4206;48.634;9.516;2023-05-23T06:17:27;107.23;;;57.23;;
8337;SDS011;4206;48.634;9.516;2023-05-23T06:19:54;96.53;;;51.80;;
8337;SDS011;4206;48.634;9.516;2023-05-23T06:22:21;103.50;;;52.00;;
8337;SDS011;4206;48.634;9.516;2023-05-23T06:24:48;98.13;;;54.00;;
8337;SDS011;4206;48.634;9.516;2023-05-23T06:27:17;103.73;;;55.90;;
8337;SDS011;4206;48.634;9.516;2023-05-23T06:29:43;102.87;;;54.13;;
8337;SDS011;4206;48.634;9.516;2023-05-23T06:32:10;103.43;;;52.63;;
8337;SDS011;4206;48.634;9.516;2023-05-23T06:34:37;97.10;;;52.13;;
8337;SDS011;4206;48.634;9.516;2023-05-23T06:37:04;94.53;;;50.60;;
8337;SDS011;4206;48.634;9.516;2023-05-23T06:39:31;98.27;;;50.50;;
8337;SDS011;4206;48.634;9.516;2023-05-23T06:41:58;91.27;;;52.30;;
8337;SDS011;4206;48.634;9.516;2023-05-23T06:44:25;92.90;;;52.17;;
8337;SDS011;4206;48.634;9.516;2023-05-23T06:46:52;88.63;;;48.80;;
8337;SDS011;4206;48.634;9.516;2023-05-23T06:49:22;85.00;;;49.97;;
8337;SDS011;4206;48.634;9.516;2023-05-23T06:51:50;79.10;;;47.00;;
8337;SDS011;4206;48.634;9.516;2023-05-23T06:54:17;78.70;;;46.50;;
8337;SDS011;4206;48.634;9.516;2023-05-23T06:56:45;72.60;;;45.07;;
8337;SDS011;4206;48.634;9.516;2023-05-23T06:59:11;72.17;;;45.87;;
8337;SDS011;4206;48.634;9.516;2023-05-23T07:01:38;83.43;;;47.33;;
8337;SDS011;4206;48.634;9.516;2023-05-23T07:04:05;73.33;;;45.70;;
8337;SDS011;4206;48.634;9.516;2023-05-23T07:06:33;87.00;;;47.13;;
8337;SDS011;4206;48.634;9.516;2023-05-23T07:09:01;71.93;;;45.83;;
8337;SDS011;4206;48.634;9.516;2023-05-23T07:11:29;74.83;;;46.27;;
8337;SDS011;4206;48.634;9.516;2023-05-23T07:13:56;74.87;;;44.50;;
8337;SDS011;4206;48.634;9.516;2023-05-23T07:16:24;75.20;;;46.40;;
8337;SDS011;4206;48.634;9.516;2023-05-23T07:18:51;86.53;;;48.07;;
8337;SDS011;4206;48.634;9.516;2023-05-23T07:21:18;69.53;;;42.10;;
8337;SDS011;4206;48.634;9.516;2023-05-23T07:23:45;72.10;;;45.33;;
8337;SDS011;4206;48.634;9.516;2023-05-23T07:26:12;70.77;;;41.07;;
8337;SDS011;4206;48.634;9.516;2023-05-23T07:28:39;68.37;;;40.10;;
8337;SDS011;4206;48.634;9.516;2023-05-23T07:31:05;67.17;;;42.73;;
8337;SDS011;4206;48.634;9.516;2023-05-23T07:33:34;63.17;;;42.43;;
8337;SDS011;4206;48.634;9.516;2023-05-23T07:36:02;73.03;;;44.33;;
8337;SDS011;4206;48.634;9.516;2023-05-23T07:38:29;77.00;;;45.90;;
8337;SDS011;4206;48.634;9.516;2023-05-23T07:40:56;89.27;;;49.63;;
8337;SDS011;4206;48.634;9.516;2023-05-23T07:43:36;78.63;;;47.23;;
8337;SDS011;4206;48.634;9.516;2023-05-23T07:46:03;82.90;;;48.37;;
8337;SDS011;4206;48.634;9.516;2023-05-23T07:48:30;87.87;;;49.27;;
8337;SDS011;4206;48.634;9.516;2023-05-23T07:50:57;81.60;;;50.43;;
8337;SDS011;4206;48.634;9.516;2023-05-23T07:53:24;79.07;;;48.33;;
8337;SDS011;4206;48.634;9.516;2023-05-23T07:55:51;75.20;;;48.13;;
8337;SDS011;4206;48.634;9.516;2023-05-23T07:58:18;74.77;;;46.43;;
8337;SDS011;4206;48.634;9.516;2023-05-23T08:00:45;81.07;;;48.07;;
8337;SDS011;4206;48.634;9.516;2023-05-23T08:03:12;69.97;;;45.97;;
8337;SDS011;4206;48.634;9.516;2023-05-23T08:05:39;69.93;;;44.80;;
8337;SDS011;4206;48.634;9.516;2023-05-23T08:08:06;70.63;;;46.70;;
8337;SDS011;4206;48.634;9.516;2023-05-23T08:10:33;64.70;;;44.40;;
8337;SDS011;4206;48.634;9.516;2023-05-23T08:12:59;64.20;;;42.97;;
8337;SDS011;4206;48.634;9.516;2023-05-23T08:15:31;67.27;;;44.73;;
8337;SDS011;4206;48.634;9.516;2023-05-23T08:17:59;63.13;;;44.50;;
8337;SDS011;4206;48.634;9.516;2023-05-23T08:20:26;60.60;;;43.53;;
8337;SDS011;4206;48.634;9.516;2023-05-23T08:22:57;61.27;;;42.63;;
8337;SDS011;4206;48.634;9.516;2023-05-23T08:25:25;63.37;;;45.70;;
8337;SDS011;4206;48.634;9.516;2023-05-23T08:27:56;61.50;;;44.23;;
8337;SDS011;4206;48.634;9.516;2023-05-23T08:30:24;60.33;;;44.13;;
8337;SDS011;4206;48.634;9.516;2023-05-23T08:32:52;61.50;;;42.40;;
8337;SDS011;4206;48.634;9.516;2023-05-23T08:35:20;60.10;;;42.80;;
8337;SDS011;4206;48.634;9.516;2023-05-23T08:37:49;53.13;;;38.63;;
8337;SDS011;4206;48.634;9.516;2023-05-23T08:40:18;51.40;;;37.90;;
8337;SDS011;4206;48.634;9.516;2023-05-23T08:42:47;48.13;;;37.50;;
8337;SDS011;4206;48.634;9.516;2023-05-23T08:45:15;49.50;;;35.10;;
8337;SDS011;4206;48.634;9.516;2023-05-23T08:47:43;40.60;;;33.70;;
8337;SDS011;4206;48.634;9.516;2023-05-23T08:50:12;45.27;;;33.93;;
8337;SDS011;4206;48.634;9.516;2023-05-23T08:52:43;40.60;;;32.10;;
8337;SDS011;4206;48.634;9.516;2023-05-23T08:55:18;42.87;;;31.10;;
8337;SDS011;4206;48.634;9.516;2023-05-23T08:57:46;40.70;;;30.27;;
8337;SDS011;4206;48.634;9.516;2023-05-23T09:00:13;34.87;;;28.97;;
8337;SDS011;4206;48.634;9.516;2023-05-23T09:02:42;38.20;;;28.70;;
8337;SDS011;4206;48.634;9.516;2023-05-23T09:05:10;38.47;;;28.67;;
8337;SDS011;4206;48.634;9.516;2023-05-23T09:07:38;44.10;;;27.40;;
8337;SDS011;4206;48.634;9.516;2023-05-23T09:10:06;38.97;;;29.97;;
8337;SDS011;4206;48.634;9.516;2023-05-23T09:12:35;44.80;;;29.13;;
8337;SDS011;4206;48.634;9.516;2023-05-23T09:15:03;35.93;;;28.73;;
8337;SDS011;4206;48.634;9.516;2023-05-23T09:17:31;38.43;;;30.50;;
8337;SDS011;4206;48.634;9.516;2023-05-23T09:19:59;38.07;;;30.30;;
8337;SDS011;4206;48.634;9.516;2023-05-23T09:22:26;38.50;;;27.73;;
8337;SDS011;4206;48.634;9.516;2023-05-23T09:24:54;36.20;;;28.17;;
8337;SDS011;4206;48.634;9.516;2023-05-23T09:27:22;34.90;;;28.07;;
8337;SDS011;4206;48.634;9.516;2023-05-23T09:29:49;35.53;;;27.67;;
8337;SDS011;4206;48.634;9.516;2023-05-23T09:32:16;35.73;;;25.60;;
8337;SDS011;4206;48.634;9.516;2023-05-23T09:37:35;33.27;;;26.70;;
8337;SDS011;4206;48.634;9.516;2023-05-23T09:40:05;36.83;;;27.60;;
8337;SDS011;4206;48.634;9.516;2023-05-23T09:42:40;34.00;;;26.80;;
8337;SDS011;4206;48.634;9.516;2023-05-23T09:45:09;31.80;;;25.27;;
8337;SDS011;4206;48.634;9.516;2023-05-23T09:47:37;41.50;;;26.07;;
8337;SDS011;4206;48.634;9.516;2023-05-23T09:50:04;29.77;;;24.93;;
8337;SDS011;4206;48.634;9.516;2023-05-23T09:52:36;31.83;;;25.80;;
8337;SDS011;4206;48.634;9.516;2023-05-23T09:55:04;28.87;;;22.40;;
8337;SDS011;4206;48.634;9.516;2023-05-23T09:57:35;29.63;;;23.73;;
8337;SDS011;4206;48.634;9.516;2023-05-23T10:00:05;29.50;;;23.50;;
8337;SDS011;4206;48.634;9.516;2023-05-23T10:05:13;27.27;;;22.77;;
8337;SDS011;4206;48.634;9.516;2023-05-23T10:07:49;31.53;;;21.77;;
8337;SDS011;4206;48.634;9.516;2023-05-23T10:10:16;25.33;;;21.00;;
8337;SDS011;4206;48.634;9.516;2023-05-23T10:12:46;27.27;;;21.07;;
8337;SDS011;4206;48.634;9.516;2023-05-23T10:15:17;24.60;;;20.83;;
8337;SDS011;4206;48.634;9.516;2023-05-23T10:20:31;22.90;;;19.30;;
8337;SDS011;4206;48.634;9.516;2023-05-23T10:23:00;21.83;;;18.60;;
8337;SDS011;4206;48.634;9.516;2023-05-23T10:25:28;23.43;;;18.63;;
8337;SDS011;4206;48.634;9.516;2023-05-23T10:27:56;23.30;;;19.13;;
8337;SDS011;4206;48.634;9.516;2023-05-23T10:30:27;24.80;;;19.10;;
8337;SDS011;4206;48.634;9.516;2023-05-23T10:32:54;28.00;;;18.70;;
8337;SDS011;4206;48.634;9.516;2023-05-23T10:35:24;25.73;;;19.17;;
8337;SDS011;4206;48.634;9.516;2023-05-23T10:43:39;26.23;;;18.70;;
8337;SDS011;4206;48.634;9.516;2023-05-23T10:46:12;22.30;;;18.93;;
8337;SDS011;4206;48.634;9.516;2023-05-23T10:48:40;26.30;;;19.20;;
8337;SDS011;4206;48.634;9.516;2023-05-23T10:51:10;27.27;;;18.93;;
8337;SDS011;4206;48.634;9.516;2023-05-23T10:53:41;22.13;;;18.37;;
8337;SDS011;4206;48.634;9.516;2023-05-23T10:56:17;22.43;;;17.70;;
8337;SDS011;4206;48.634;9.516;2023-05-23T10:58:52;23.17;;;16.00;;
8337;SDS011;4206;48.634;9.516;2023-05-23T11:01:20;21.10;;;17.67;;
8337;SDS011;4206;48.634;9.516;2023-05-23T11:03:48;19.37;;;16.00;;
8337;SDS011;4206;48.634;9.516;2023-05-23T11:06:39;22.43;;;15.70;;
8337;SDS011;4206;48.634;9.516;2023-05-23T11:09:14;19.50;;;15.93;;
8337;SDS011;4206;48.634;9.516;2023-05-23T11:11:50;17.93;;;14.97;;
8337;SDS011;4206;48.634;9.516;2023-05-23T11:14:34;20.13;;;15.20;;
8337;SDS011;4206;48.634;9.516;2023-05-23T11:20:03;18.23;;;15.33;;
8337;SDS011;4206;48.634;9.516;2023-05-23T11:22:32;18.30;;;15.17;;
8337;SDS011;4206;48.634;9.516;2023-05-23T11:25:00;18.07;;;15.10;;
8337;SDS011;4206;48.634;9.516;2023-05-23T11:27:32;18.70;;;15.33;;
8337;SDS011;4206;48.634;9.516;2023-05-23T11:32:34;22.17;;;16.23;;
8337;SDS011;4206;48.634;9.516;2023-05-23T11:35:02;18.53;;;15.10;;
8337;SDS011;4206;48.634;9.516;2023-05-23T11:37:32;17.90;;;14.37;;
8337;SDS011;4206;48.634;9.516;2023-05-23T11:40:23;15.60;;;13.90;;
8337;SDS011;4206;48.634;9.516;2023-05-23T11:42:50;18.00;;;14.03;;
8337;SDS011;4206;48.634;9.516;2023-05-23T11:45:19;14.60;;;13.00;;
8337;SDS011;4206;48.634;9.516;2023-05-23T11:47:47;16.33;;;13.10;;
8337;SDS011;4206;48.634;9.516;2023-05-23T11:50:14;16.43;;;12.90;;
8337;SDS011;4206;48.634;9.516;2023-05-23T11:52:42;14.97;;;12.40;;
8337;SDS011;4206;48.634;9.516;2023-05-23T11:55:09;15.90;;;13.03;;
8337;SDS011;4206;48.634;9.516;2023-05-23T11:57:37;16.00;;;13.80;;
8337;SDS011;4206;48.634;9.516;2023-05-23T12:00:05;13.43;;;12.03;;
8337;SDS011;4206;48.634;9.516;2023-05-23T12:02:41;15.07;;;12.40;;
8337;SDS011;4206;48.634;9.516;2023-05-23T12:05:09;26.30;;;11.90;;
8337;SDS011;4206;48.634;9.516;2023-05-23T12:07:39;15.97;;;11.87;;
8337;SDS011;4206;48.634;9.516;2023-05-23T12:10:09;15.43;;;11.87;;
8337;SDS011;4206;48.634;9.516;2023-05-23T12:12:37;14.27;;;12.50;;
8337;SDS011;4206;48.634;9.516;2023-05-23T12:15:08;12.30;;;11.00;;
8337;SDS011;4206;48.634;9.516;2023-05-23T12:17:38;13.80;;;10.30;;
8337;SDS011;4206;48.634;9.516;2023-05-23T12:20:09;13.67;;;10.83;;
8337;SDS011;4206;48.634;9.516;2023-05-23T12:22:37;11.60;;;10.50;;
8337;SDS011;4206;48.634;9.516;2023-05-23T12:25:07;11.73;;;10.53;;
8337;SDS011;4206;48.634;9.516;2023-05-23T12:27:35;12.90;;;10.67;;
8337;SDS011;4206;48.634;9.516;2023-05-23T12:30:07;11.50;;;10.20;;
8337;SDS011;4206;48.634;9.516;2023-05-23T12:32:39;13.67;;;10.23;;
8337;SDS011;4206;48.634;9.516;2023-05-23T12:35:08;11.53;;;10.33;;
8337;SDS011;4206;48.634;9.516;2023-05-23T12:37:39;10.83;;;9.13;;
8337;SDS011;4206;48.634;9.516;2023-05-23T12:40:10;10.93;;;8.50;;
8337;SDS011;4206;48.634;9.516;2023-05-23T12:42:45;9.53;;;8.53;;
8337;SDS011;4206;48.634;9.516;2023-05-23T12:45:22;10.10;;;8.43;;
8337;SDS011;4206;48.634;9.516;2023-05-23T12:47:55;11.03;;;8.00;;
8337;SDS011;4206;48.634;9.516;2023-05-23T12:50:22;7.77;;;7.03;;
8337;SDS011;4206;48.634;9.516;2023-05-23T12:52:48;9.63;;;6.97;;
8337;SDS011;4206;48.634;9.516;2023-05-23T12:55:15;7.43;;;6.70;;
8337;SDS011;4206;48.634;9.516;2023-05-23T12:57:42;7.23;;;6.53;;
8337;SDS011;4206;48.634;9.516;2023-05-23T13:00:10;8.10;;;7.30;;
8337;SDS011;4206;48.634;9.516;2023-05-23T13:02:37;14.37;;;7.73;;
8337;SDS011;4206;48.634;9.516;2023-05-23T13:05:05;9.07;;;7.40;;
8337;SDS011;4206;48.634;9.516;2023-05-23T13:07:32;10.90;;;7.40;;
8337;SDS011;4206;48.634;9.516;2023-05-23T13:10:00;8.70;;;7.80;;
8337;SDS011;4206;48.634;9.516;2023-05-23T13:12:27;9.77;;;8.00;;
8337;SDS011;4206;48.634;9.516;2023-05-23T13:14:54;12.10;;;7.40;;
8337;SDS011;4206;48.634;9.516;2023-05-23T13:17:23;10.27;;;7.43;;
8337;SDS011;4206;48.634;9.516;2023-05-23T13:19:50;9.20;;;7.73;;
8337;SDS011;4206;48.634;9.516;2023-05-23T13:22:16;8.80;;;8.00;;
8337;SDS011;4206;48.634;9.516;2023-05-23T13:24:43;8.30;;;7.50;;
8337;SDS011;4206;48.634;9.516;2023-05-23T13:27:11;8.93;;;6.67;;
8337;SDS011;4206;48.634;9.516;2023-05-23T13:29:38;8.00;;;6.83;;
8337;SDS011;4206;48.634;9.516;2023-05-23T13:32:05;7.37;;;6.67;;
8337;SDS011;4206;48.634;9.516;2023-05-23T13:34:32;10.70;;;7.27;;
8337;SDS011;4206;48.634;9.516;2023-05-23T13:37:02;7.37;;;6.60;;
8337;SDS011;4206;48.634;9.516;2023-05-23T13:39:30;7.47;;;6.60;;
8337;SDS011;4206;48.634;9.516;2023-05-23T13:41:58;7.70;;;5.90;;
8337;SDS011;4206;48.634;9.516;2023-05-23T13:44:25;6.23;;;5.63;;
8337;SDS011;4206;48.634;9.516;2023-05-23T13:46:51;6.47;;;5.87;;
8337;SDS011;4206;48.634;9.516;2023-05-23T13:49:19;6.17;;;5.57;;
8337;SDS011;4206;48.634;9.516;2023-05-23T13:51:46;6.83;;;6.13;;
8337;SDS011;4206;48.634;9.516;2023-05-23T13:54:13;6.80;;;6.10;;
8337;SDS011;4206;48.634;9.516;2023-05-23T13:56:40;6.67;;;6.07;;
8337;SDS011;4206;48.634;9.516;2023-05-23T13:59:07;6.83;;;6.13;;
8337;SDS011;4206;48.634;9.516;2023-05-23T14:01:34;7.57;;;6.80;;
8337;SDS011;4206;48.634;9.516;2023-05-23T14:04:01;8.30;;;6.60;;
8337;SDS011;4206;48.634;9.516;2023-05-23T14:06:30;6.07;;;5.47;;
8337;SDS011;4206;48.634;9.516;2023-05-23T14:08:58;7.97;;;6.13;;
8337;SDS011;4206;48.634;9.516;2023-05-23T14:11:25;7.50;;;5.70;;
8337;SDS011;4206;48.634;9.516;2023-05-23T14:13:52;7.33;;;6.43;;
8337;SDS011;4206;48.634;9.516;2023-05-23T14:16:19;5.50;;;5.00;;
8337;SDS011;4206;48.634;9.516;2023-05-23T14:18:46;7.23;;;5.97;;
8337;SDS011;4206;48.634;9.516;2023-05-23T14:21:13;6.10;;;5.40;;
8337;SDS011;4206;48.634;9.516;2023-05-23T14:23:40;13.13;;;6.00;;
8337;SDS011;4206;48.634;9.516;2023-05-23T14:26:07;7.30;;;5.50;;
8337;SDS011;4206;48.634;9.516;2023-05-23T14:28:34;5.50;;;4.90;;
8337;SDS011;4206;48.634;9.516;2023-05-23T14:31:01;5.97;;;4.87;;
8337;SDS011;4206;48.634;9.516;2023-05-23T14:33:28;4.63;;;4.23;;
8337;SDS011;4206;48.634;9.516;2023-05-23T14:35:55;5.87;;;4.43;;
8337;SDS011;4206;48.634;9.516;2023-05-23T14:38:21;5.10;;;4.50;;
8337;SDS011;4206;48.634;9.516;2023-05-23T14:40:48;6.67;;;4.97;;
8337;SDS011;4206;48.634;9.516;2023-05-23T14:43:16;7.83;;;5.27;;
8337;SDS011;4206;48.634;9.516;2023-05-23T14:45:43;7.30;;;4.80;;
8337;SDS011;4206;48.634;9.516;2023-05-23T14:48:10;5.83;;;5.17;;
8337;SDS011;4206;48.634;9.516;2023-05-23T14:50:37;5.07;;;4.53;;
8337;SDS011;4206;48.634;9.516;2023-05-23T14:53:04;6.63;;;5.30;;
8337;SDS011;4206;48.634;9.516;2023-05-23T14:55:31;5.70;;;4.50;;
8337;SDS011;4206;48.634;9.516;2023-05-23T14:57:58;4.70;;;4.30;;
8337;SDS011;4206;48.634;9.516;2023-05-23T15:00:25;5.07;;;4.47;;
8337;SDS011;4206;48.634;9.516;2023-05-23T15:02:52;5.23;;;4.77;;
8337;SDS011;4206;48.634;9.516;2023-05-23T15:05:19;5.80;;;4.73;;
8337;SDS011;4206;48.634;9.516;2023-05-23T15:07:47;6.80;;;4.83;;
8337;SDS011;4206;48.634;9.516;2023-05-23T15:10:14;4.70;;;3.93;;
8337;SDS011;4206;48.634;9.516;2023-05-23T15:12:41;9.73;;;4.07;;
8337;SDS011;4206;48.634;9.516;2023-05-23T15:15:08;4.73;;;4.33;;
8337;SDS011;4206;48.634;9.516;2023-05-23T15:17:36;5.00;;;4.50;;
8337;SDS011;4206;48.634;9.516;2023-05-23T15:20:03;4.20;;;3.80;;